<?xml version="1.0" encoding="UTF-8" standalone="no" ?>
<gpx xmlns="http://www.topografix.com/GPX/1/1" xmlns:xsi="http://www.w3.org/2001/XMLSchema-instance" xsi:schemaLocation="http://www.topografix.com/GPX/1/1 http://www.topografix.com/GPX/1/1/gpx.xsd" version="1.1" creator="VisuGPX - https://www.visugpx.com">
  <metadata>
    <name>Randonnée du 13/03/2022 à 15:18</name>
  </metadata>
  <wpt lat="46.79915" lon="6.30563">
    <ele>884.1</ele>
    <name><![CDATA[Parking de l'Hotel du Lac]]></name>
  </wpt>
  <wpt lat="46.79711" lon="6.30577">
    <ele>901.9</ele>
    <name><![CDATA[Petit passage derrière les maisons]]></name>
  </wpt>
  <wpt lat="46.79898" lon="6.31544">
    <ele>1005.1</ele>
    <name><![CDATA[Ramassage de cocottes]]></name>
  </wpt>
  <wpt lat="46.80899" lon="6.32432">
    <ele>896.8</ele>
    <name><![CDATA[Source bleue]]></name>
  </wpt>
  <wpt lat="46.812" lon="6.32009">
    <ele>873.9</ele>
    <name><![CDATA[Chemin très boueux]]></name>
  </wpt>
  <wpt lat="46.81409" lon="6.3177">
    <ele>853.9</ele>
    <name><![CDATA[Chemin du Tour du Lac]]></name>
  </wpt>
  <trk>
    <name><![CDATA[Randonnée du 13/03/2022 à 15:18]]></name>
    <extensions>
      <line xmlns="http://www.topografix.com/GPX/gpx_style/0/2">
        <color>0000FF</color>
        <width>4</width>
      </line>
    </extensions>
    <trkseg>
      <trkpt lat="46.79895" lon="6.3057">
        <ele>937</ele>
        <time>2022-03-13T15:18:06+01:00</time>
      </trkpt>
      <trkpt lat="46.79872" lon="6.30573">
        <ele>940</ele>
        <time>2022-03-13T15:18:38+01:00</time>
      </trkpt>
      <trkpt lat="46.79851" lon="6.30591">
        <ele>943</ele>
        <time>2022-03-13T15:18:58+01:00</time>
      </trkpt>
      <trkpt lat="46.79828" lon="6.30602">
        <ele>943</ele>
        <time>2022-03-13T15:19:14+01:00</time>
      </trkpt>
      <trkpt lat="46.79805" lon="6.30618">
        <ele>944</ele>
        <time>2022-03-13T15:19:38+01:00</time>
      </trkpt>
      <trkpt lat="46.79786" lon="6.30641">
        <ele>944</ele>
        <time>2022-03-13T15:19:57+01:00</time>
      </trkpt>
      <trkpt lat="46.79764" lon="6.30647">
        <ele>945</ele>
        <time>2022-03-13T15:20:21+01:00</time>
      </trkpt>
      <trkpt lat="46.79745" lon="6.30625">
        <ele>941</ele>
        <time>2022-03-13T15:20:44+01:00</time>
      </trkpt>
      <trkpt lat="46.79736" lon="6.30593">
        <ele>944</ele>
        <time>2022-03-13T15:20:57+01:00</time>
      </trkpt>
      <trkpt lat="46.79714" lon="6.30575">
        <ele>938</ele>
        <time>2022-03-13T15:21:17+01:00</time>
      </trkpt>
      <trkpt lat="46.79696" lon="6.30597">
        <ele>944</ele>
        <time>2022-03-13T15:21:38+01:00</time>
      </trkpt>
      <trkpt lat="46.7971" lon="6.30627">
        <ele>944</ele>
        <time>2022-03-13T15:22:00+01:00</time>
      </trkpt>
      <trkpt lat="46.79721" lon="6.30657">
        <ele>940</ele>
        <time>2022-03-13T15:22:20+01:00</time>
      </trkpt>
      <trkpt lat="46.79731" lon="6.30691">
        <ele>939</ele>
        <time>2022-03-13T15:22:49+01:00</time>
      </trkpt>
      <trkpt lat="46.79746" lon="6.30716">
        <ele>936</ele>
        <time>2022-03-13T15:23:10+01:00</time>
      </trkpt>
      <trkpt lat="46.79756" lon="6.30751">
        <ele>939</ele>
        <time>2022-03-13T15:23:32+01:00</time>
      </trkpt>
      <trkpt lat="46.79775" lon="6.3077">
        <ele>939</ele>
        <time>2022-03-13T15:24:07+01:00</time>
      </trkpt>
      <trkpt lat="46.79772" lon="6.30806">
        <ele>939</ele>
        <time>2022-03-13T15:24:27+01:00</time>
      </trkpt>
      <trkpt lat="46.79775" lon="6.30841">
        <ele>977</ele>
        <time>2022-03-13T15:25:31+01:00</time>
      </trkpt>
      <trkpt lat="46.79782" lon="6.30874">
        <ele>949</ele>
        <time>2022-03-13T15:26:04+01:00</time>
      </trkpt>
      <trkpt lat="46.79802" lon="6.3089">
        <ele>949</ele>
        <time>2022-03-13T15:26:23+01:00</time>
      </trkpt>
      <trkpt lat="46.79815" lon="6.30919">
        <ele>949</ele>
        <time>2022-03-13T15:26:48+01:00</time>
      </trkpt>
      <trkpt lat="46.79828" lon="6.30949">
        <ele>949</ele>
        <time>2022-03-13T15:27:09+01:00</time>
      </trkpt>
      <trkpt lat="46.79829" lon="6.30984">
        <ele>949</ele>
        <time>2022-03-13T15:27:30+01:00</time>
      </trkpt>
      <trkpt lat="46.79846" lon="6.31008">
        <ele>949</ele>
        <time>2022-03-13T15:27:53+01:00</time>
      </trkpt>
      <trkpt lat="46.79869" lon="6.31026">
        <ele>949</ele>
        <time>2022-03-13T15:28:10+01:00</time>
      </trkpt>
      <trkpt lat="46.79892" lon="6.31035">
        <ele>1002</ele>
        <time>2022-03-13T15:28:34+01:00</time>
      </trkpt>
      <trkpt lat="46.79894" lon="6.31074">
        <ele>949</ele>
        <time>2022-03-13T15:29:04+01:00</time>
      </trkpt>
      <trkpt lat="46.79903" lon="6.31108">
        <ele>949</ele>
        <time>2022-03-13T15:29:33+01:00</time>
      </trkpt>
      <trkpt lat="46.79913" lon="6.31141">
        <ele>1019</ele>
        <time>2022-03-13T15:30:08+01:00</time>
      </trkpt>
      <trkpt lat="46.79924" lon="6.31174">
        <ele>1014</ele>
        <time>2022-03-13T15:30:37+01:00</time>
      </trkpt>
      <trkpt lat="46.79928" lon="6.31208">
        <ele>1018</ele>
        <time>2022-03-13T15:30:59+01:00</time>
      </trkpt>
      <trkpt lat="46.79935" lon="6.3124">
        <ele>1022</ele>
        <time>2022-03-13T15:31:16+01:00</time>
      </trkpt>
      <trkpt lat="46.7994" lon="6.31278">
        <ele>1031</ele>
        <time>2022-03-13T15:31:32+01:00</time>
      </trkpt>
      <trkpt lat="46.79947" lon="6.31313">
        <ele>1038</ele>
        <time>2022-03-13T15:31:50+01:00</time>
      </trkpt>
      <trkpt lat="46.79952" lon="6.31348">
        <ele>1045</ele>
        <time>2022-03-13T15:32:11+01:00</time>
      </trkpt>
      <trkpt lat="46.79949" lon="6.31384">
        <ele>1044</ele>
        <time>2022-03-13T15:32:33+01:00</time>
      </trkpt>
      <trkpt lat="46.79936" lon="6.31413">
        <ele>1043</ele>
        <time>2022-03-13T15:32:56+01:00</time>
      </trkpt>
      <trkpt lat="46.7992" lon="6.31437">
        <ele>1020</ele>
        <time>2022-03-13T15:33:23+01:00</time>
      </trkpt>
      <trkpt lat="46.79908" lon="6.31467">
        <ele>1043</ele>
        <time>2022-03-13T15:33:43+01:00</time>
      </trkpt>
      <trkpt lat="46.79904" lon="6.315">
        <ele>1051</ele>
        <time>2022-03-13T15:34:01+01:00</time>
      </trkpt>
      <trkpt lat="46.79903" lon="6.31536">
        <ele>1045</ele>
        <time>2022-03-13T15:39:01+01:00</time>
      </trkpt>
      <trkpt lat="46.79892" lon="6.31566">
        <ele>1045</ele>
        <time>2022-03-13T15:39:16+01:00</time>
      </trkpt>
      <trkpt lat="46.7988" lon="6.31594">
        <ele>1056</ele>
        <time>2022-03-13T15:39:43+01:00</time>
      </trkpt>
      <trkpt lat="46.79873" lon="6.31626">
        <ele>1046</ele>
        <time>2022-03-13T15:40:17+01:00</time>
      </trkpt>
      <trkpt lat="46.79857" lon="6.31651">
        <ele>1044</ele>
        <time>2022-03-13T15:40:32+01:00</time>
      </trkpt>
      <trkpt lat="46.79849" lon="6.31683">
        <ele>1050</ele>
        <time>2022-03-13T15:40:45+01:00</time>
      </trkpt>
      <trkpt lat="46.79834" lon="6.31709">
        <ele>1058</ele>
        <time>2022-03-13T15:41:04+01:00</time>
      </trkpt>
      <trkpt lat="46.79841" lon="6.31741">
        <ele>1057</ele>
        <time>2022-03-13T15:41:21+01:00</time>
      </trkpt>
      <trkpt lat="46.79849" lon="6.31775">
        <ele>1057</ele>
        <time>2022-03-13T15:41:37+01:00</time>
      </trkpt>
      <trkpt lat="46.79867" lon="6.31801">
        <ele>1062</ele>
        <time>2022-03-13T15:41:53+01:00</time>
      </trkpt>
      <trkpt lat="46.79887" lon="6.31817">
        <ele>1065</ele>
        <time>2022-03-13T15:42:06+01:00</time>
      </trkpt>
      <trkpt lat="46.79893" lon="6.31856">
        <ele>1063</ele>
        <time>2022-03-13T15:42:33+01:00</time>
      </trkpt>
      <trkpt lat="46.79892" lon="6.3189">
        <ele>1076</ele>
        <time>2022-03-13T15:42:54+01:00</time>
      </trkpt>
      <trkpt lat="46.79883" lon="6.31923">
        <ele>1075</ele>
        <time>2022-03-13T15:43:17+01:00</time>
      </trkpt>
      <trkpt lat="46.79874" lon="6.31956">
        <ele>1070</ele>
        <time>2022-03-13T15:43:40+01:00</time>
      </trkpt>
      <trkpt lat="46.79857" lon="6.31984">
        <ele>1067</ele>
        <time>2022-03-13T15:44:02+01:00</time>
      </trkpt>
      <trkpt lat="46.79848" lon="6.32018">
        <ele>1070</ele>
        <time>2022-03-13T15:44:19+01:00</time>
      </trkpt>
      <trkpt lat="46.79839" lon="6.32053">
        <ele>1065</ele>
        <time>2022-03-13T15:44:37+01:00</time>
      </trkpt>
      <trkpt lat="46.79823" lon="6.32078">
        <ele>1064</ele>
        <time>2022-03-13T15:44:59+01:00</time>
      </trkpt>
      <trkpt lat="46.79815" lon="6.32113">
        <ele>1078</ele>
        <time>2022-03-13T15:45:17+01:00</time>
      </trkpt>
      <trkpt lat="46.79834" lon="6.32095">
        <ele>1074</ele>
        <time>2022-03-13T15:45:48+01:00</time>
      </trkpt>
      <trkpt lat="46.79846" lon="6.32067">
        <ele>1077</ele>
        <time>2022-03-13T15:46:04+01:00</time>
      </trkpt>
      <trkpt lat="46.79864" lon="6.32045">
        <ele>1074</ele>
        <time>2022-03-13T15:46:31+01:00</time>
      </trkpt>
      <trkpt lat="46.79876" lon="6.32016">
        <ele>1067</ele>
        <time>2022-03-13T15:47:00+01:00</time>
      </trkpt>
      <trkpt lat="46.799" lon="6.32015">
        <ele>1052</ele>
        <time>2022-03-13T15:47:24+01:00</time>
      </trkpt>
      <trkpt lat="46.79924" lon="6.32009">
        <ele>1068</ele>
        <time>2022-03-13T15:47:41+01:00</time>
      </trkpt>
      <trkpt lat="46.79945" lon="6.32023">
        <ele>1050</ele>
        <time>2022-03-13T15:47:58+01:00</time>
      </trkpt>
      <trkpt lat="46.79963" lon="6.32044">
        <ele>1049</ele>
        <time>2022-03-13T15:48:15+01:00</time>
      </trkpt>
      <trkpt lat="46.79986" lon="6.3205">
        <ele>1052</ele>
        <time>2022-03-13T15:48:31+01:00</time>
      </trkpt>
      <trkpt lat="46.8001" lon="6.32063">
        <ele>1055</ele>
        <time>2022-03-13T15:48:52+01:00</time>
      </trkpt>
      <trkpt lat="46.8003" lon="6.32049">
        <ele>1056</ele>
        <time>2022-03-13T15:49:05+01:00</time>
      </trkpt>
      <trkpt lat="46.80049" lon="6.32024">
        <ele>1062</ele>
        <time>2022-03-13T15:49:27+01:00</time>
      </trkpt>
      <trkpt lat="46.80073" lon="6.32014">
        <ele>1064</ele>
        <time>2022-03-13T15:49:48+01:00</time>
      </trkpt>
      <trkpt lat="46.80096" lon="6.32025">
        <ele>1055</ele>
        <time>2022-03-13T15:50:10+01:00</time>
      </trkpt>
      <trkpt lat="46.80113" lon="6.32053">
        <ele>1035</ele>
        <time>2022-03-13T15:50:32+01:00</time>
      </trkpt>
      <trkpt lat="46.80134" lon="6.32064">
        <ele>1040</ele>
        <time>2022-03-13T15:50:52+01:00</time>
      </trkpt>
      <trkpt lat="46.80157" lon="6.32058">
        <ele>1047</ele>
        <time>2022-03-13T15:51:08+01:00</time>
      </trkpt>
      <trkpt lat="46.8018" lon="6.32054">
        <ele>1049</ele>
        <time>2022-03-13T15:51:26+01:00</time>
      </trkpt>
      <trkpt lat="46.80204" lon="6.32044">
        <ele>1043</ele>
        <time>2022-03-13T15:51:47+01:00</time>
      </trkpt>
      <trkpt lat="46.80228" lon="6.32041">
        <ele>1039</ele>
        <time>2022-03-13T15:52:06+01:00</time>
      </trkpt>
      <trkpt lat="46.80229" lon="6.32084">
        <ele>1023</ele>
        <time>2022-03-13T15:52:43+01:00</time>
      </trkpt>
      <trkpt lat="46.80255" lon="6.32075">
        <ele>1014</ele>
        <time>2022-03-13T15:53:06+01:00</time>
      </trkpt>
      <trkpt lat="46.8028" lon="6.32055">
        <ele>1014</ele>
        <time>2022-03-13T15:53:18+01:00</time>
      </trkpt>
      <trkpt lat="46.803" lon="6.32037">
        <ele>1013</ele>
        <time>2022-03-13T15:53:34+01:00</time>
      </trkpt>
      <trkpt lat="46.80324" lon="6.32037">
        <ele>1002</ele>
        <time>2022-03-13T15:53:55+01:00</time>
      </trkpt>
      <trkpt lat="46.80337" lon="6.32064">
        <ele>1011</ele>
        <time>2022-03-13T15:54:13+01:00</time>
      </trkpt>
      <trkpt lat="46.80355" lon="6.32084">
        <ele>1012</ele>
        <time>2022-03-13T15:54:34+01:00</time>
      </trkpt>
      <trkpt lat="46.80378" lon="6.32093">
        <ele>1024</ele>
        <time>2022-03-13T15:54:57+01:00</time>
      </trkpt>
      <trkpt lat="46.804" lon="6.32098">
        <ele>1021</ele>
        <time>2022-03-13T15:55:34+01:00</time>
      </trkpt>
      <trkpt lat="46.80423" lon="6.32119">
        <ele>1020</ele>
        <time>2022-03-13T15:55:53+01:00</time>
      </trkpt>
      <trkpt lat="46.80447" lon="6.32122">
        <ele>1025</ele>
        <time>2022-03-13T15:56:05+01:00</time>
      </trkpt>
      <trkpt lat="46.80469" lon="6.32138">
        <ele>1015</ele>
        <time>2022-03-13T15:56:38+01:00</time>
      </trkpt>
      <trkpt lat="46.80493" lon="6.32154">
        <ele>1026</ele>
        <time>2022-03-13T15:56:57+01:00</time>
      </trkpt>
      <trkpt lat="46.80514" lon="6.32172">
        <ele>1023</ele>
        <time>2022-03-13T15:57:21+01:00</time>
      </trkpt>
      <trkpt lat="46.8054" lon="6.32197">
        <ele>1029</ele>
        <time>2022-03-13T15:57:37+01:00</time>
      </trkpt>
      <trkpt lat="46.80561" lon="6.3221">
        <ele>1031</ele>
        <time>2022-03-13T15:59:03+01:00</time>
      </trkpt>
      <trkpt lat="46.80579" lon="6.32234">
        <ele>1035</ele>
        <time>2022-03-13T15:59:23+01:00</time>
      </trkpt>
      <trkpt lat="46.80596" lon="6.32264">
        <ele>1034</ele>
        <time>2022-03-13T15:59:43+01:00</time>
      </trkpt>
      <trkpt lat="46.80613" lon="6.32287">
        <ele>1036</ele>
        <time>2022-03-13T16:00:03+01:00</time>
      </trkpt>
      <trkpt lat="46.80629" lon="6.32313">
        <ele>1039</ele>
        <time>2022-03-13T16:00:23+01:00</time>
      </trkpt>
      <trkpt lat="46.80646" lon="6.32336">
        <ele>1037</ele>
        <time>2022-03-13T16:00:52+01:00</time>
      </trkpt>
      <trkpt lat="46.80682" lon="6.32382">
        <ele>1037</ele>
        <time>2022-03-13T16:01:47+01:00</time>
      </trkpt>
      <trkpt lat="46.80696" lon="6.32409">
        <ele>1034</ele>
        <time>2022-03-13T16:02:13+01:00</time>
      </trkpt>
      <trkpt lat="46.80712" lon="6.32432">
        <ele>1038</ele>
        <time>2022-03-13T16:02:32+01:00</time>
      </trkpt>
      <trkpt lat="46.8073" lon="6.32457">
        <ele>1036</ele>
        <time>2022-03-13T16:02:53+01:00</time>
      </trkpt>
      <trkpt lat="46.80752" lon="6.32469">
        <ele>1046</ele>
        <time>2022-03-13T16:03:11+01:00</time>
      </trkpt>
      <trkpt lat="46.80773" lon="6.32491">
        <ele>1045</ele>
        <time>2022-03-13T16:03:29+01:00</time>
      </trkpt>
      <trkpt lat="46.80794" lon="6.32521">
        <ele>1038</ele>
        <time>2022-03-13T16:03:53+01:00</time>
      </trkpt>
      <trkpt lat="46.80813" lon="6.3254">
        <ele>1047</ele>
        <time>2022-03-13T16:04:08+01:00</time>
      </trkpt>
      <trkpt lat="46.80833" lon="6.32559">
        <ele>1052</ele>
        <time>2022-03-13T16:04:18+01:00</time>
      </trkpt>
      <trkpt lat="46.8085" lon="6.32587">
        <ele>1049</ele>
        <time>2022-03-13T16:04:37+01:00</time>
      </trkpt>
      <trkpt lat="46.80875" lon="6.32584">
        <ele>1043</ele>
        <time>2022-03-13T16:04:56+01:00</time>
      </trkpt>
      <trkpt lat="46.80897" lon="6.32592">
        <ele>1039</ele>
        <time>2022-03-13T16:05:11+01:00</time>
      </trkpt>
      <trkpt lat="46.8092" lon="6.326">
        <ele>1038</ele>
        <time>2022-03-13T16:05:34+01:00</time>
      </trkpt>
      <trkpt lat="46.80949" lon="6.32587">
        <ele>1021</ele>
        <time>2022-03-13T16:06:03+01:00</time>
      </trkpt>
      <trkpt lat="46.80973" lon="6.32585">
        <ele>1019</ele>
        <time>2022-03-13T16:06:16+01:00</time>
      </trkpt>
      <trkpt lat="46.80995" lon="6.3259">
        <ele>1015</ele>
        <time>2022-03-13T16:06:28+01:00</time>
      </trkpt>
      <trkpt lat="46.8099" lon="6.32549">
        <ele>985</ele>
        <time>2022-03-13T16:07:47+01:00</time>
      </trkpt>
      <trkpt lat="46.80972" lon="6.3253">
        <ele>995</ele>
        <time>2022-03-13T16:08:25+01:00</time>
      </trkpt>
      <trkpt lat="46.8096" lon="6.32496">
        <ele>999</ele>
        <time>2022-03-13T16:08:43+01:00</time>
      </trkpt>
      <trkpt lat="46.80957" lon="6.3246">
        <ele>973</ele>
        <time>2022-03-13T16:09:33+01:00</time>
      </trkpt>
      <trkpt lat="46.80957" lon="6.32416">
        <ele>971</ele>
        <time>2022-03-13T16:09:40+01:00</time>
      </trkpt>
      <trkpt lat="46.80937" lon="6.32398">
        <ele>962</ele>
        <time>2022-03-13T16:09:55+01:00</time>
      </trkpt>
      <trkpt lat="46.80919" lon="6.32431">
        <ele>946</ele>
        <time>2022-03-13T16:10:39+01:00</time>
      </trkpt>
      <trkpt lat="46.80941" lon="6.32416">
        <ele>935</ele>
        <time>2022-03-13T16:17:59+01:00</time>
      </trkpt>
      <trkpt lat="46.80949" lon="6.32383">
        <ele>934</ele>
        <time>2022-03-13T16:18:13+01:00</time>
      </trkpt>
      <trkpt lat="46.80945" lon="6.32347">
        <ele>938</ele>
        <time>2022-03-13T16:18:24+01:00</time>
      </trkpt>
      <trkpt lat="46.80944" lon="6.32313">
        <ele>940</ele>
        <time>2022-03-13T16:18:43+01:00</time>
      </trkpt>
      <trkpt lat="46.80939" lon="6.32346">
        <ele>933</ele>
        <time>2022-03-13T16:19:20+01:00</time>
      </trkpt>
      <trkpt lat="46.80924" lon="6.32371">
        <ele>944</ele>
        <time>2022-03-13T16:20:00+01:00</time>
      </trkpt>
      <trkpt lat="46.80908" lon="6.32402">
        <ele>948</ele>
        <time>2022-03-13T16:20:56+01:00</time>
      </trkpt>
      <trkpt lat="46.8089" lon="6.32423">
        <ele>953</ele>
        <time>2022-03-13T16:21:47+01:00</time>
      </trkpt>
      <trkpt lat="46.80908" lon="6.32445">
        <ele>976</ele>
        <time>2022-03-13T16:22:36+01:00</time>
      </trkpt>
      <trkpt lat="46.80908" lon="6.32406">
        <ele>959</ele>
        <time>2022-03-13T16:24:35+01:00</time>
      </trkpt>
      <trkpt lat="46.80917" lon="6.32372">
        <ele>950</ele>
        <time>2022-03-13T16:24:51+01:00</time>
      </trkpt>
      <trkpt lat="46.80917" lon="6.32335">
        <ele>962</ele>
        <time>2022-03-13T16:25:09+01:00</time>
      </trkpt>
      <trkpt lat="46.8094" lon="6.32331">
        <ele>958</ele>
        <time>2022-03-13T16:25:26+01:00</time>
      </trkpt>
      <trkpt lat="46.80959" lon="6.32311">
        <ele>950</ele>
        <time>2022-03-13T16:26:01+01:00</time>
      </trkpt>
      <trkpt lat="46.80979" lon="6.32284">
        <ele>938</ele>
        <time>2022-03-13T16:26:35+01:00</time>
      </trkpt>
      <trkpt lat="46.81003" lon="6.32275">
        <ele>936</ele>
        <time>2022-03-13T16:26:42+01:00</time>
      </trkpt>
      <trkpt lat="46.81027" lon="6.32268">
        <ele>929</ele>
        <time>2022-03-13T16:27:02+01:00</time>
      </trkpt>
      <trkpt lat="46.81045" lon="6.32245">
        <ele>930</ele>
        <time>2022-03-13T16:27:18+01:00</time>
      </trkpt>
      <trkpt lat="46.81062" lon="6.32182">
        <ele>932</ele>
        <time>2022-03-13T16:28:11+01:00</time>
      </trkpt>
      <trkpt lat="46.81044" lon="6.32162">
        <ele>933</ele>
        <time>2022-03-13T16:28:28+01:00</time>
      </trkpt>
      <trkpt lat="46.8104" lon="6.32129">
        <ele>932</ele>
        <time>2022-03-13T16:28:47+01:00</time>
      </trkpt>
      <trkpt lat="46.81065" lon="6.32116">
        <ele>932</ele>
        <time>2022-03-13T16:29:15+01:00</time>
      </trkpt>
      <trkpt lat="46.8109" lon="6.32112">
        <ele>932</ele>
        <time>2022-03-13T16:29:29+01:00</time>
      </trkpt>
      <trkpt lat="46.81117" lon="6.32117">
        <ele>932</ele>
        <time>2022-03-13T16:29:53+01:00</time>
      </trkpt>
      <trkpt lat="46.81141" lon="6.3211">
        <ele>932</ele>
        <time>2022-03-13T16:30:07+01:00</time>
      </trkpt>
      <trkpt lat="46.81163" lon="6.32099">
        <ele>866</ele>
        <time>2022-03-13T16:30:25+01:00</time>
      </trkpt>
      <trkpt lat="46.81184" lon="6.32086">
        <ele>866</ele>
        <time>2022-03-13T16:30:42+01:00</time>
      </trkpt>
      <trkpt lat="46.81195" lon="6.32056">
        <ele>866</ele>
        <time>2022-03-13T16:31:25+01:00</time>
      </trkpt>
      <trkpt lat="46.81202" lon="6.32025">
        <ele>866</ele>
        <time>2022-03-13T16:31:51+01:00</time>
      </trkpt>
      <trkpt lat="46.81195" lon="6.31991">
        <ele>866</ele>
        <time>2022-03-13T16:32:08+01:00</time>
      </trkpt>
      <trkpt lat="46.81193" lon="6.31956">
        <ele>866</ele>
        <time>2022-03-13T16:32:24+01:00</time>
      </trkpt>
      <trkpt lat="46.81187" lon="6.31922">
        <ele>866</ele>
        <time>2022-03-13T16:32:38+01:00</time>
      </trkpt>
      <trkpt lat="46.81208" lon="6.31904">
        <ele>866</ele>
        <time>2022-03-13T16:33:06+01:00</time>
      </trkpt>
      <trkpt lat="46.81232" lon="6.31907">
        <ele>866</ele>
        <time>2022-03-13T16:33:24+01:00</time>
      </trkpt>
      <trkpt lat="46.81254" lon="6.31898">
        <ele>866</ele>
        <time>2022-03-13T16:33:55+01:00</time>
      </trkpt>
      <trkpt lat="46.81277" lon="6.31888">
        <ele>866</ele>
        <time>2022-03-13T16:34:12+01:00</time>
      </trkpt>
      <trkpt lat="46.81303" lon="6.31887">
        <ele>866</ele>
        <time>2022-03-13T16:34:41+01:00</time>
      </trkpt>
      <trkpt lat="46.81323" lon="6.31905">
        <ele>866</ele>
        <time>2022-03-13T16:34:57+01:00</time>
      </trkpt>
      <trkpt lat="46.81345" lon="6.31898">
        <ele>866</ele>
        <time>2022-03-13T16:35:27+01:00</time>
      </trkpt>
      <trkpt lat="46.81361" lon="6.31874">
        <ele>866</ele>
        <time>2022-03-13T16:35:43+01:00</time>
      </trkpt>
      <trkpt lat="46.81379" lon="6.31853">
        <ele>866</ele>
        <time>2022-03-13T16:36:01+01:00</time>
      </trkpt>
      <trkpt lat="46.81396" lon="6.31831">
        <ele>906</ele>
        <time>2022-03-13T16:36:25+01:00</time>
      </trkpt>
      <trkpt lat="46.81413" lon="6.31807">
        <ele>906</ele>
        <time>2022-03-13T16:36:43+01:00</time>
      </trkpt>
      <trkpt lat="46.81418" lon="6.31773">
        <ele>906</ele>
        <time>2022-03-13T16:37:03+01:00</time>
      </trkpt>
      <trkpt lat="46.81403" lon="6.31745">
        <ele>906</ele>
        <time>2022-03-13T16:37:21+01:00</time>
      </trkpt>
      <trkpt lat="46.81392" lon="6.31714">
        <ele>906</ele>
        <time>2022-03-13T16:37:40+01:00</time>
      </trkpt>
      <trkpt lat="46.81381" lon="6.31681">
        <ele>936</ele>
        <time>2022-03-13T16:37:58+01:00</time>
      </trkpt>
      <trkpt lat="46.81362" lon="6.31661">
        <ele>936</ele>
        <time>2022-03-13T16:38:14+01:00</time>
      </trkpt>
      <trkpt lat="46.81336" lon="6.31657">
        <ele>915</ele>
        <time>2022-03-13T16:38:30+01:00</time>
      </trkpt>
      <trkpt lat="46.81313" lon="6.31642">
        <ele>936</ele>
        <time>2022-03-13T16:38:44+01:00</time>
      </trkpt>
      <trkpt lat="46.81292" lon="6.3163">
        <ele>936</ele>
        <time>2022-03-13T16:38:59+01:00</time>
      </trkpt>
      <trkpt lat="46.81297" lon="6.31594">
        <ele>936</ele>
        <time>2022-03-13T16:39:23+01:00</time>
      </trkpt>
      <trkpt lat="46.81283" lon="6.31563">
        <ele>936</ele>
        <time>2022-03-13T16:39:49+01:00</time>
      </trkpt>
      <trkpt lat="46.81255" lon="6.31552">
        <ele>936</ele>
        <time>2022-03-13T16:40:18+01:00</time>
      </trkpt>
      <trkpt lat="46.81226" lon="6.31534">
        <ele>936</ele>
        <time>2022-03-13T16:40:48+01:00</time>
      </trkpt>
      <trkpt lat="46.81202" lon="6.31507">
        <ele>936</ele>
        <time>2022-03-13T16:41:12+01:00</time>
      </trkpt>
      <trkpt lat="46.81181" lon="6.3148">
        <ele>936</ele>
        <time>2022-03-13T16:41:28+01:00</time>
      </trkpt>
      <trkpt lat="46.81161" lon="6.31462">
        <ele>936</ele>
        <time>2022-03-13T16:41:40+01:00</time>
      </trkpt>
      <trkpt lat="46.8114" lon="6.31438">
        <ele>936</ele>
        <time>2022-03-13T16:42:00+01:00</time>
      </trkpt>
      <trkpt lat="46.81121" lon="6.31419">
        <ele>905</ele>
        <time>2022-03-13T16:42:19+01:00</time>
      </trkpt>
      <trkpt lat="46.81109" lon="6.31389">
        <ele>905</ele>
        <time>2022-03-13T16:42:38+01:00</time>
      </trkpt>
      <trkpt lat="46.81095" lon="6.31363">
        <ele>906</ele>
        <time>2022-03-13T16:42:56+01:00</time>
      </trkpt>
      <trkpt lat="46.8108" lon="6.31333">
        <ele>902</ele>
        <time>2022-03-13T16:43:10+01:00</time>
      </trkpt>
      <trkpt lat="46.81058" lon="6.31319">
        <ele>910</ele>
        <time>2022-03-13T16:43:28+01:00</time>
      </trkpt>
      <trkpt lat="46.81043" lon="6.31293">
        <ele>908</ele>
        <time>2022-03-13T16:44:07+01:00</time>
      </trkpt>
      <trkpt lat="46.81027" lon="6.31269">
        <ele>917</ele>
        <time>2022-03-13T16:44:21+01:00</time>
      </trkpt>
      <trkpt lat="46.81012" lon="6.31244">
        <ele>915</ele>
        <time>2022-03-13T16:44:38+01:00</time>
      </trkpt>
      <trkpt lat="46.80989" lon="6.31228">
        <ele>913</ele>
        <time>2022-03-13T16:44:53+01:00</time>
      </trkpt>
      <trkpt lat="46.80965" lon="6.31207">
        <ele>913</ele>
        <time>2022-03-13T16:45:13+01:00</time>
      </trkpt>
      <trkpt lat="46.80945" lon="6.3119">
        <ele>911</ele>
        <time>2022-03-13T16:45:30+01:00</time>
      </trkpt>
      <trkpt lat="46.80932" lon="6.31163">
        <ele>911</ele>
        <time>2022-03-13T16:45:44+01:00</time>
      </trkpt>
      <trkpt lat="46.80914" lon="6.31142">
        <ele>908</ele>
        <time>2022-03-13T16:46:01+01:00</time>
      </trkpt>
      <trkpt lat="46.80899" lon="6.31117">
        <ele>912</ele>
        <time>2022-03-13T16:46:15+01:00</time>
      </trkpt>
      <trkpt lat="46.80879" lon="6.31096">
        <ele>907</ele>
        <time>2022-03-13T16:46:37+01:00</time>
      </trkpt>
      <trkpt lat="46.8086" lon="6.31076">
        <ele>909</ele>
        <time>2022-03-13T16:46:56+01:00</time>
      </trkpt>
      <trkpt lat="46.80839" lon="6.31058">
        <ele>908</ele>
        <time>2022-03-13T16:47:17+01:00</time>
      </trkpt>
      <trkpt lat="46.80822" lon="6.31034">
        <ele>910</ele>
        <time>2022-03-13T16:47:35+01:00</time>
      </trkpt>
      <trkpt lat="46.80802" lon="6.31017">
        <ele>915</ele>
        <time>2022-03-13T16:47:51+01:00</time>
      </trkpt>
      <trkpt lat="46.80783" lon="6.30995">
        <ele>920</ele>
        <time>2022-03-13T16:48:09+01:00</time>
      </trkpt>
      <trkpt lat="46.80775" lon="6.30961">
        <ele>918</ele>
        <time>2022-03-13T16:48:30+01:00</time>
      </trkpt>
      <trkpt lat="46.80755" lon="6.30944">
        <ele>907</ele>
        <time>2022-03-13T16:49:06+01:00</time>
      </trkpt>
      <trkpt lat="46.80738" lon="6.30917">
        <ele>910</ele>
        <time>2022-03-13T16:49:22+01:00</time>
      </trkpt>
      <trkpt lat="46.8072" lon="6.30895">
        <ele>907</ele>
        <time>2022-03-13T16:49:38+01:00</time>
      </trkpt>
      <trkpt lat="46.80704" lon="6.30866">
        <ele>914</ele>
        <time>2022-03-13T16:50:09+01:00</time>
      </trkpt>
      <trkpt lat="46.80686" lon="6.30846">
        <ele>910</ele>
        <time>2022-03-13T16:50:30+01:00</time>
      </trkpt>
      <trkpt lat="46.80663" lon="6.30858">
        <ele>934</ele>
        <time>2022-03-13T16:51:19+01:00</time>
      </trkpt>
      <trkpt lat="46.8064" lon="6.30862">
        <ele>934</ele>
        <time>2022-03-13T16:51:38+01:00</time>
      </trkpt>
      <trkpt lat="46.80633" lon="6.30895">
        <ele>934</ele>
        <time>2022-03-13T16:52:25+01:00</time>
      </trkpt>
      <trkpt lat="46.80608" lon="6.30882">
        <ele>934</ele>
        <time>2022-03-13T16:53:52+01:00</time>
      </trkpt>
      <trkpt lat="46.80585" lon="6.30873">
        <ele>934</ele>
        <time>2022-03-13T16:54:04+01:00</time>
      </trkpt>
      <trkpt lat="46.80562" lon="6.30855">
        <ele>934</ele>
        <time>2022-03-13T16:54:20+01:00</time>
      </trkpt>
      <trkpt lat="46.80537" lon="6.3085">
        <ele>934</ele>
        <time>2022-03-13T16:54:36+01:00</time>
      </trkpt>
      <trkpt lat="46.80515" lon="6.30841">
        <ele>934</ele>
        <time>2022-03-13T16:54:53+01:00</time>
      </trkpt>
      <trkpt lat="46.80489" lon="6.30836">
        <ele>928</ele>
        <time>2022-03-13T16:55:14+01:00</time>
      </trkpt>
      <trkpt lat="46.8046" lon="6.30832">
        <ele>928</ele>
        <time>2022-03-13T16:55:35+01:00</time>
      </trkpt>
      <trkpt lat="46.80438" lon="6.30825">
        <ele>923</ele>
        <time>2022-03-13T16:55:59+01:00</time>
      </trkpt>
      <trkpt lat="46.80422" lon="6.30794">
        <ele>923</ele>
        <time>2022-03-13T16:56:19+01:00</time>
      </trkpt>
      <trkpt lat="46.80408" lon="6.30769">
        <ele>937</ele>
        <time>2022-03-13T16:56:38+01:00</time>
      </trkpt>
      <trkpt lat="46.80394" lon="6.3074">
        <ele>923</ele>
        <time>2022-03-13T16:56:56+01:00</time>
      </trkpt>
      <trkpt lat="46.80374" lon="6.30722">
        <ele>928</ele>
        <time>2022-03-13T16:57:09+01:00</time>
      </trkpt>
      <trkpt lat="46.80357" lon="6.307">
        <ele>922</ele>
        <time>2022-03-13T16:57:25+01:00</time>
      </trkpt>
      <trkpt lat="46.80347" lon="6.30668">
        <ele>922</ele>
        <time>2022-03-13T16:57:42+01:00</time>
      </trkpt>
      <trkpt lat="46.80355" lon="6.30634">
        <ele>922</ele>
        <time>2022-03-13T16:58:01+01:00</time>
      </trkpt>
      <trkpt lat="46.80345" lon="6.30601">
        <ele>922</ele>
        <time>2022-03-13T16:58:29+01:00</time>
      </trkpt>
      <trkpt lat="46.80322" lon="6.30575">
        <ele>922</ele>
        <time>2022-03-13T16:58:48+01:00</time>
      </trkpt>
      <trkpt lat="46.80294" lon="6.30571">
        <ele>921</ele>
        <time>2022-03-13T16:59:09+01:00</time>
      </trkpt>
      <trkpt lat="46.80271" lon="6.30563">
        <ele>924</ele>
        <time>2022-03-13T16:59:29+01:00</time>
      </trkpt>
      <trkpt lat="46.8025" lon="6.30536">
        <ele>919</ele>
        <time>2022-03-13T16:59:49+01:00</time>
      </trkpt>
      <trkpt lat="46.80225" lon="6.30516">
        <ele>912</ele>
        <time>2022-03-13T17:00:08+01:00</time>
      </trkpt>
      <trkpt lat="46.802" lon="6.3051">
        <ele>912</ele>
        <time>2022-03-13T17:00:45+01:00</time>
      </trkpt>
      <trkpt lat="46.80176" lon="6.3051">
        <ele>922</ele>
        <time>2022-03-13T17:01:02+01:00</time>
      </trkpt>
      <trkpt lat="46.80154" lon="6.30511">
        <ele>927</ele>
        <time>2022-03-13T17:01:19+01:00</time>
      </trkpt>
      <trkpt lat="46.80131" lon="6.3051">
        <ele>929</ele>
        <time>2022-03-13T17:01:42+01:00</time>
      </trkpt>
      <trkpt lat="46.80109" lon="6.30524">
        <ele>929</ele>
        <time>2022-03-13T17:01:59+01:00</time>
      </trkpt>
      <trkpt lat="46.80093" lon="6.30549">
        <ele>932</ele>
        <time>2022-03-13T17:02:19+01:00</time>
      </trkpt>
      <trkpt lat="46.80071" lon="6.30538">
        <ele>932</ele>
        <time>2022-03-13T17:02:40+01:00</time>
      </trkpt>
      <trkpt lat="46.80051" lon="6.30517">
        <ele>932</ele>
        <time>2022-03-13T17:03:05+01:00</time>
      </trkpt>
      <trkpt lat="46.80026" lon="6.3052">
        <ele>932</ele>
        <time>2022-03-13T17:03:20+01:00</time>
      </trkpt>
      <trkpt lat="46.80004" lon="6.30526">
        <ele>936</ele>
        <time>2022-03-13T17:03:48+01:00</time>
      </trkpt>
      <trkpt lat="46.79981" lon="6.30527">
        <ele>937</ele>
        <time>2022-03-13T17:04:19+01:00</time>
      </trkpt>
      <trkpt lat="46.79957" lon="6.30523">
        <ele>937</ele>
        <time>2022-03-13T17:04:35+01:00</time>
      </trkpt>
      <trkpt lat="46.79934" lon="6.30537">
        <ele>937</ele>
        <time>2022-03-13T17:04:56+01:00</time>
      </trkpt>
    </trkseg>
  </trk>
</gpx>